createdAt,value
2019-06-26T00:00:50.428Z,16.73
2019-06-26T00:03:56.860Z,16.69
2019-06-26T00:07:03.318Z,16.77
2019-06-26T00:10:09.902Z,16.60
2019-06-26T00:13:25.696Z,16.52
2019-06-26T00:16:25.569Z,16.50
2019-06-26T00:19:32.121Z,16.56
2019-06-26T00:22:38.520Z,16.61
2019-06-26T00:25:44.886Z,16.41
2019-06-26T00:28:51.544Z,16.56
2019-06-26T00:31:58.217Z,16.52
2019-06-26T00:35:05.224Z,16.53
2019-06-26T00:38:11.660Z,16.57
2019-06-26T00:41:18.081Z,16.54
2019-06-26T00:44:24.568Z,16.67
2019-06-26T00:47:31.170Z,16.78
2019-06-26T00:50:37.586Z,16.80
2019-06-26T00:53:44.126Z,16.63
2019-06-26T00:56:51.974Z,16.62
2019-06-26T00:59:58.504Z,16.64
2019-06-26T01:03:04.961Z,16.42
2019-06-26T01:06:30.486Z,16.37
2019-06-26T01:09:37.974Z,16.52
2019-06-26T01:12:45.387Z,16.44
2019-06-26T01:15:51.824Z,16.47
2019-06-26T01:18:58.421Z,16.42
2019-06-26T01:22:04.962Z,16.52
2019-06-26T01:25:11.858Z,16.40
2019-06-26T01:28:18.306Z,16.33
2019-06-26T01:31:24.729Z,16.45
2019-06-26T01:34:32.856Z,16.51
2019-06-26T01:37:39.910Z,16.49
2019-06-26T01:40:46.340Z,16.40
2019-06-26T01:43:52.961Z,16.16
2019-06-26T01:47:06.512Z,16.32
2019-06-26T01:50:12.992Z,16.37
2019-06-26T01:53:21.356Z,16.19
2019-06-26T01:56:27.701Z,16.33
2019-06-26T01:59:34.175Z,16.38
2019-06-26T02:02:40.585Z,16.24
2019-06-26T02:05:46.999Z,16.35
2019-06-26T02:08:53.303Z,16.24
2019-06-26T02:12:00.595Z,16.22
2019-06-26T02:15:07.339Z,16.19
2019-06-26T02:18:31.590Z,16.04
2019-06-26T02:21:38.569Z,16.17
2019-06-26T02:24:44.954Z,16.23
2019-06-26T02:27:53.178Z,16.35
2019-06-26T02:30:59.566Z,16.29
2019-06-26T02:34:05.988Z,16.26
2019-06-26T02:37:12.435Z,16.36
2019-06-26T02:40:19.133Z,16.43
2019-06-26T02:43:25.563Z,16.29
2019-06-26T02:46:32.057Z,16.39
2019-06-26T02:49:38.564Z,16.25
2019-06-26T02:52:44.961Z,16.33
2019-06-26T02:55:51.345Z,16.18
2019-06-26T02:58:57.812Z,16.20
2019-06-26T03:02:04.466Z,16.19
2019-06-26T03:05:10.921Z,15.96
2019-06-26T03:08:17.274Z,16.04
2019-06-26T03:11:23.759Z,16.12
2019-06-26T03:14:30.293Z,16.13
2019-06-26T03:17:36.875Z,15.95
2019-06-26T03:20:47.012Z,16.08
2019-06-26T03:23:53.666Z,16.14
2019-06-26T03:27:00.162Z,16.09
2019-06-26T03:30:06.755Z,16.11
2019-06-26T03:33:13.200Z,15.93
2019-06-26T03:36:19.687Z,16.05
2019-06-26T03:39:26.126Z,16.03
2019-06-26T03:42:34.731Z,15.92
2019-06-26T03:45:41.205Z,16.02
2019-06-26T03:48:47.665Z,16.02
2019-06-26T03:51:54.142Z,16.18
2019-06-26T03:55:00.618Z,15.95
2019-06-26T03:58:07.008Z,16.16
2019-06-26T04:01:13.367Z,16.36
2019-06-26T04:04:19.756Z,16.33
2019-06-26T04:07:26.171Z,16.44
2019-06-26T04:10:33.702Z,16.40
2019-06-26T04:13:40.101Z,16.19
2019-06-26T04:16:46.541Z,16.18
2019-06-26T04:19:52.945Z,16.20
2019-06-26T04:22:59.743Z,16.15
2019-06-26T04:26:06.549Z,16.10
2019-06-26T04:29:12.952Z,16.23
2019-06-26T04:32:19.358Z,16.06
2019-06-26T04:35:25.810Z,16.37
2019-06-26T04:38:32.116Z,16.26
2019-06-26T04:41:38.596Z,16.18
2019-06-26T04:44:45.806Z,16.36
2019-06-26T04:47:52.159Z,16.51
2019-06-26T04:50:58.638Z,16.48
2019-06-26T04:54:05.093Z,16.36
2019-06-26T04:57:11.508Z,16.13
2019-06-26T05:00:21.640Z,16.21
2019-06-26T05:03:26.299Z,16.30
2019-06-26T05:06:32.803Z,16.00
2019-06-26T05:09:39.263Z,16.01
2019-06-26T05:12:45.776Z,16.11
2019-06-26T05:15:52.237Z,16.21
2019-06-26T05:18:58.704Z,16.18
2019-06-26T05:22:04.985Z,16.06
2019-06-26T05:25:12.220Z,16.12
2019-06-26T05:28:21.108Z,16.14
2019-06-26T05:31:27.603Z,16.10
2019-06-26T05:34:34.078Z,16.14
2019-06-26T05:37:40.525Z,16.06
2019-06-26T05:40:47.023Z,16.15
2019-06-26T05:43:53.379Z,16.16
2019-06-26T05:47:01.700Z,16.10
2019-06-26T05:50:08.631Z,16.13
2019-06-26T05:53:15.020Z,16.13
2019-06-26T05:56:21.483Z,16.05
2019-06-26T05:59:27.755Z,16.11
2019-06-26T06:02:34.199Z,16.12
2019-06-26T06:05:40.892Z,16.31
2019-06-26T06:08:47.405Z,16.14
2019-06-26T06:11:53.766Z,16.34
2019-06-26T06:15:00.147Z,16.42
2019-06-26T06:18:06.575Z,16.40
2019-06-26T06:21:12.945Z,16.30
2019-06-26T06:24:19.718Z,16.10
2019-06-26T06:27:27.212Z,15.88
2019-06-26T06:30:33.864Z,15.92
2019-06-26T06:33:40.286Z,16.12
2019-06-26T06:36:46.771Z,16.14
2019-06-26T06:39:53.044Z,16.23
2019-06-26T06:42:59.623Z,16.20
2019-06-26T06:46:06.117Z,16.17
2019-06-26T06:49:12.942Z,16.11
2019-06-26T06:52:19.276Z,16.07
2019-06-26T06:55:25.647Z,16.10
2019-06-26T06:58:32.131Z,16.08
2019-06-26T07:01:38.613Z,16.12
2019-06-26T07:04:45.050Z,16.13
2019-06-26T07:07:51.524Z,16.19
2019-06-26T07:10:57.931Z,16.17
2019-06-26T07:14:04.424Z,16.31
2019-06-26T07:17:20.424Z,16.25
2019-06-26T07:20:18.944Z,16.18
2019-06-26T07:23:25.478Z,16.26
2019-06-26T07:26:31.997Z,16.18
2019-06-26T07:29:38.367Z,16.14
2019-06-26T07:32:45.122Z,16.20
2019-06-26T07:35:51.684Z,16.36
2019-06-26T07:38:58.521Z,16.23
2019-06-26T07:42:04.980Z,16.44
2019-06-26T07:45:12.524Z,16.33
2019-06-26T07:48:20.566Z,16.33
2019-06-26T07:51:27.499Z,16.23
2019-06-26T07:54:33.912Z,16.36
2019-06-26T07:57:40.379Z,16.34
2019-06-26T08:00:46.779Z,16.21
2019-06-26T08:03:53.218Z,16.41
2019-06-26T08:06:59.550Z,16.47
2019-06-26T08:10:06.969Z,16.48
2019-06-26T08:13:13.301Z,16.48
2019-06-26T08:16:19.721Z,16.25
2019-06-26T08:19:26.130Z,16.31
2019-06-26T08:22:32.623Z,16.37
2019-06-26T08:25:39.054Z,16.25
2019-06-26T08:28:45.676Z,16.28
2019-06-26T08:31:51.922Z,16.29
2019-06-26T08:34:58.664Z,16.37
2019-06-26T08:38:12.461Z,16.29
2019-06-26T08:41:13.353Z,16.49
2019-06-26T08:44:19.804Z,16.39
2019-06-26T08:47:26.526Z,16.34
2019-06-26T08:50:33.008Z,16.39
2019-06-26T08:53:39.690Z,16.34
2019-06-26T08:56:46.137Z,16.42
2019-06-26T08:59:52.431Z,16.42
2019-06-26T09:02:58.780Z,16.45
2019-06-26T09:06:05.267Z,16.50
2019-06-26T09:09:11.614Z,16.33
2019-06-26T09:12:18.234Z,16.30
2019-06-26T09:15:24.702Z,16.09
2019-06-26T09:18:35.823Z,16.23
2019-06-26T09:21:39.195Z,16.43
2019-06-26T09:24:45.754Z,16.50
2019-06-26T09:27:52.215Z,16.43
2019-06-26T09:30:58.627Z,16.44
2019-06-26T09:34:05.369Z,16.36
2019-06-26T09:37:13.143Z,16.45
2019-06-26T09:40:19.622Z,16.54
2019-06-26T09:43:26.117Z,16.45
2019-06-26T09:46:32.461Z,16.29
2019-06-26T09:49:38.842Z,16.42
2019-06-26T09:52:45.298Z,16.42
2019-06-26T09:55:51.882Z,16.40
2019-06-26T09:58:58.205Z,16.40
2019-06-26T10:02:04.816Z,16.41
2019-06-26T10:05:13.511Z,16.44
2019-06-26T10:08:19.935Z,16.42
2019-06-26T10:11:26.380Z,16.52
2019-06-26T10:14:46.629Z,16.47
2019-06-26T10:17:41.063Z,16.51
2019-06-26T10:20:47.577Z,16.56
2019-06-26T10:23:54.023Z,16.53
2019-06-26T10:27:00.550Z,16.43
2019-06-26T10:30:08.523Z,16.52
2019-06-26T10:33:16.068Z,16.62
2019-06-26T10:36:24.582Z,16.67
2019-06-26T10:39:30.921Z,16.71
2019-06-26T10:42:37.391Z,16.68
2019-06-26T10:45:43.922Z,16.60
2019-06-26T10:48:50.289Z,16.68
2019-06-26T10:51:56.841Z,16.78
2019-06-26T10:55:03.399Z,16.79
2019-06-26T10:58:10.307Z,16.82
2019-06-26T11:01:16.744Z,16.76
2019-06-26T11:04:23.200Z,16.74
2019-06-26T11:07:29.723Z,16.77
2019-06-26T11:10:36.238Z,16.79
2019-06-26T11:13:42.746Z,16.85
2019-06-26T11:16:50.801Z,16.86
2019-06-26T11:19:57.252Z,16.86
2019-06-26T11:23:03.699Z,16.85
2019-06-26T11:26:11.287Z,16.81
2019-06-26T11:29:17.693Z,16.73
2019-06-26T11:32:24.297Z,16.67
2019-06-26T11:35:30.867Z,16.81
2019-06-26T11:38:37.251Z,16.88
2019-06-26T11:41:43.977Z,16.90
2019-06-26T11:44:50.462Z,17.00
2019-06-26T11:47:56.988Z,16.96
2019-06-26T11:51:03.427Z,17.02
2019-06-26T11:54:09.782Z,17.03
2019-06-26T11:57:16.268Z,16.77
2019-06-26T12:00:24.043Z,16.94
2019-06-26T12:03:30.557Z,17.00
2019-06-26T12:06:37.064Z,16.81
2019-06-26T12:09:43.593Z,16.87
2019-06-26T12:12:50.091Z,17.08
2019-06-26T12:15:56.450Z,17.18
2019-06-26T12:19:02.975Z,17.21
2019-06-26T12:22:09.347Z,17.26
2019-06-26T12:25:15.837Z,17.05
2019-06-26T12:28:22.266Z,17.06
2019-06-26T12:31:28.998Z,16.95
2019-06-26T12:34:35.370Z,17.01
2019-06-26T12:37:41.940Z,16.96
2019-06-26T12:40:48.289Z,16.97
2019-06-26T12:43:55.012Z,17.03
2019-06-26T12:47:01.472Z,16.99
2019-06-26T12:50:09.867Z,17.03
2019-06-26T12:53:16.282Z,16.95
2019-06-26T12:56:22.633Z,16.92
2019-06-26T12:59:29.151Z,17.08
2019-06-26T13:02:36.450Z,17.18
2019-06-26T13:05:42.885Z,17.10
2019-06-26T13:08:50.521Z,17.08
2019-06-26T13:11:56.999Z,17.10
2019-06-26T13:15:03.635Z,17.06
2019-06-26T13:18:11.594Z,16.96
2019-06-26T13:21:18.005Z,17.19
2019-06-26T13:24:24.439Z,17.25
2019-06-26T13:27:30.973Z,17.28
2019-06-26T13:30:38.734Z,17.32
2019-06-26T13:33:45.164Z,17.28
2019-06-26T13:36:51.619Z,17.23
2019-06-26T13:39:57.970Z,17.24
2019-06-26T13:43:04.395Z,17.26
2019-06-26T13:46:11.118Z,17.10
2019-06-26T13:49:17.618Z,17.11
2019-06-26T13:52:24.065Z,17.16
2019-06-26T13:55:30.484Z,17.14
2019-06-26T13:58:36.816Z,17.05
2019-06-26T14:01:43.379Z,17.07
2019-06-26T14:04:50.156Z,16.99
2019-06-26T14:07:56.578Z,17.00
2019-06-26T14:11:03.096Z,17.01
2019-06-26T14:14:09.594Z,16.78
2019-06-26T14:17:16.109Z,16.75
2019-06-26T14:20:23.131Z,16.95
2019-06-26T14:23:29.572Z,16.90
2019-06-26T14:26:36.053Z,16.93
2019-06-26T14:29:42.517Z,16.97
2019-06-26T14:32:48.972Z,16.97
2019-06-26T14:35:55.447Z,16.99
2019-06-26T14:39:01.956Z,17.00
2019-06-26T14:42:10.033Z,16.99
2019-06-26T14:45:17.423Z,16.77
2019-06-26T14:48:25.149Z,16.95
2019-06-26T14:51:43.407Z,17.03
2019-06-26T14:54:39.793Z,17.02
2019-06-26T14:57:46.237Z,16.96
2019-06-26T15:00:53.000Z,17.02
2019-06-26T15:03:59.428Z,17.02
2019-06-26T15:07:06.166Z,17.04
2019-06-26T15:10:14.445Z,17.15
2019-06-26T15:13:20.884Z,17.26
2019-06-26T15:16:30.351Z,17.15
2019-06-26T15:19:35.538Z,17.16
2019-06-26T15:22:42.046Z,17.19
2019-06-26T15:25:48.548Z,17.19
2019-06-26T15:28:54.992Z,17.11
2019-06-26T15:32:01.489Z,17.29
2019-06-26T15:35:07.973Z,17.15
2019-06-26T15:38:14.696Z,17.21
2019-06-26T15:41:21.244Z,17.21
2019-06-26T15:44:27.622Z,17.31
2019-06-26T15:47:34.056Z,17.44
2019-06-26T15:50:40.727Z,17.52
2019-06-26T15:53:47.210Z,17.58
2019-06-26T15:56:53.670Z,17.59
2019-06-26T16:00:00.125Z,17.56
2019-06-26T16:03:06.685Z,17.55
2019-06-26T16:06:13.149Z,17.44
2019-06-26T16:09:19.682Z,17.37
2019-06-26T16:12:26.078Z,17.50
2019-06-26T16:15:33.039Z,17.51
2019-06-26T16:18:44.617Z,17.53
2019-06-26T16:21:51.029Z,17.45
2019-06-26T16:24:57.395Z,17.42
2019-06-26T16:28:05.690Z,17.45
2019-06-26T16:31:12.017Z,17.47
2019-06-26T16:34:18.614Z,17.62
2019-06-26T16:37:25.053Z,17.67
2019-06-26T16:40:31.546Z,17.74
2019-06-26T16:43:38.096Z,17.72
2019-06-26T16:46:44.625Z,17.77
2019-06-26T16:49:51.068Z,17.68
2019-06-26T16:52:57.860Z,17.62
2019-06-26T16:56:04.402Z,17.61
2019-06-26T16:59:10.943Z,17.68
2019-06-26T17:02:17.372Z,17.71
2019-06-26T17:05:24.804Z,17.71
2019-06-26T17:08:31.227Z,17.67
2019-06-26T17:11:38.218Z,17.69
2019-06-26T17:14:44.595Z,17.71
2019-06-26T17:17:51.050Z,17.62
2019-06-26T17:20:57.518Z,17.65
2019-06-26T17:24:06.126Z,17.63
2019-06-26T17:27:12.477Z,17.62
2019-06-26T17:30:19.278Z,17.55
2019-06-26T17:33:25.762Z,17.60
2019-06-26T17:36:32.232Z,17.64
2019-06-26T17:39:38.706Z,17.67
2019-06-26T17:42:45.211Z,17.60
2019-06-26T17:45:51.723Z,17.65
2019-06-26T17:48:58.255Z,17.73
2019-06-26T17:52:04.691Z,17.69
2019-06-26T17:55:11.357Z,17.74
2019-06-26T17:58:17.837Z,17.74
2019-06-26T18:01:24.237Z,17.70
2019-06-26T18:04:30.669Z,17.79
2019-06-26T18:07:37.396Z,17.79
2019-06-26T18:10:43.910Z,17.83
2019-06-26T18:13:50.837Z,17.83
2019-06-26T18:16:57.252Z,17.68
2019-06-26T18:20:03.943Z,17.58
2019-06-26T18:23:10.413Z,17.73
2019-06-26T18:26:17.940Z,17.73
2019-06-26T18:29:24.384Z,17.73
2019-06-26T18:32:31.243Z,17.73
2019-06-26T18:35:37.725Z,17.48
2019-06-26T18:38:44.196Z,17.32
2019-06-26T18:41:50.611Z,17.23
2019-06-26T18:44:57.099Z,17.20
2019-06-26T18:48:03.588Z,17.25
2019-06-26T18:51:10.088Z,17.18
2019-06-26T18:54:16.461Z,17.24
2019-06-26T18:57:23.127Z,17.23
2019-06-26T19:00:29.676Z,17.12
2019-06-26T19:03:36.238Z,16.94
2019-06-26T19:06:42.686Z,16.93
2019-06-26T19:09:49.255Z,16.99
2019-06-26T19:12:55.762Z,16.88
2019-06-26T19:16:04.659Z,16.80
2019-06-26T19:19:12.394Z,16.79
2019-06-26T19:22:19.040Z,16.83
2019-06-26T19:25:25.607Z,16.74
2019-06-26T19:28:32.086Z,16.77
2019-06-26T19:31:39.728Z,16.88
2019-06-26T19:34:46.182Z,16.67
2019-06-26T19:37:52.626Z,16.77
2019-06-26T19:40:59.507Z,16.79
2019-06-26T19:44:08.816Z,16.86
2019-06-26T19:47:14.383Z,16.90
2019-06-26T19:50:23.606Z,16.79
2019-06-26T19:53:29.931Z,16.69
2019-06-26T19:56:36.379Z,16.48
2019-06-26T19:59:43.358Z,16.54
2019-06-26T20:02:49.884Z,16.40
2019-06-26T20:05:56.418Z,16.32
2019-06-26T20:09:02.801Z,16.47
2019-06-26T20:12:10.559Z,16.57
2019-06-26T20:15:17.020Z,16.69
2019-06-26T20:18:24.017Z,16.67
2019-06-26T20:21:30.473Z,16.76
2019-06-26T20:24:43.947Z,16.76
2019-06-26T20:27:46.214Z,16.76
2019-06-26T20:30:52.723Z,16.80
2019-06-26T20:33:59.098Z,16.76
2019-06-26T20:37:05.542Z,16.83
2019-06-26T20:40:12.308Z,16.83
2019-06-26T20:43:18.687Z,16.83
2019-06-26T20:46:25.130Z,16.85
2019-06-26T20:49:32.586Z,16.80
2019-06-26T20:52:39.056Z,16.70
2019-06-26T20:55:45.589Z,16.70
2019-06-26T20:58:52.105Z,16.68
2019-06-26T21:02:00.186Z,16.73
2019-06-26T21:05:07.072Z,16.73
2019-06-26T21:08:13.558Z,16.73
2019-06-26T21:11:21.483Z,16.73
2019-06-26T21:14:28.011Z,16.82
2019-06-26T21:17:34.432Z,16.85
2019-06-26T21:20:41.195Z,16.86
2019-06-26T21:23:47.637Z,16.91
2019-06-26T21:26:54.056Z,16.92
2019-06-26T21:30:02.810Z,16.75
2019-06-26T21:33:09.470Z,16.54
2019-06-26T21:36:18.157Z,16.51
2019-06-26T21:39:24.617Z,16.67
2019-06-26T21:42:31.138Z,16.65
2019-06-26T21:45:37.590Z,16.70
2019-06-26T21:48:44.038Z,16.76
2019-06-26T21:51:50.494Z,16.78
2019-06-26T21:54:57.437Z,16.76
2019-06-26T21:58:21.885Z,16.71
2019-06-26T22:01:46.436Z,16.76
2019-06-26T22:05:12.577Z,16.75
2019-06-26T22:08:27.093Z,16.78
2019-06-26T22:11:35.237Z,16.73
2019-06-26T22:14:41.660Z,16.69
2019-06-26T22:17:48.368Z,16.67
2019-06-26T22:20:55.134Z,16.65
2019-06-26T22:24:01.836Z,16.60
2019-06-26T22:27:08.605Z,16.59
2019-06-26T22:30:15.784Z,16.55
2019-06-26T22:33:22.308Z,16.59
2019-06-26T22:36:28.804Z,16.65
2019-06-26T22:39:35.269Z,16.66
2019-06-26T22:42:41.821Z,16.69
2019-06-26T22:45:48.254Z,16.65
2019-06-26T22:48:56.165Z,16.62
2019-06-26T22:52:02.604Z,16.70
2019-06-26T22:55:09.315Z,16.71
2019-06-26T22:58:16.052Z,16.72
2019-06-26T23:01:22.573Z,16.82
2019-06-26T23:04:30.622Z,16.74
2019-06-26T23:07:37.563Z,16.65
2019-06-26T23:10:43.963Z,16.56
2019-06-26T23:13:50.491Z,16.58
2019-06-26T23:16:56.945Z,16.60
2019-06-26T23:20:04.296Z,16.55
2019-06-26T23:23:11.395Z,16.49
2019-06-26T23:26:23.798Z,16.62
2019-06-26T23:29:26.200Z,16.45
2019-06-26T23:32:32.718Z,16.40
2019-06-26T23:35:40.035Z,16.24
2019-06-26T23:38:46.566Z,16.39
2019-06-26T23:41:54.565Z,16.31
2019-06-26T23:45:01.140Z,16.36
2019-06-26T23:48:07.582Z,16.32
2019-06-26T23:51:14.056Z,16.38
2019-06-26T23:54:20.550Z,16.22
2019-06-26T23:57:27.153Z,16.34
